createdAt,value
2018-01-10T00:00:49.589Z,18.10
2018-01-10T00:01:51.537Z,18.30
2018-01-10T00:02:51.015Z,17.70
2018-01-10T00:03:49.848Z,18.40
2018-01-10T00:04:51.303Z,18.10
2018-01-10T00:05:50.639Z,19.50
2018-01-10T00:06:50.928Z,21.40
2018-01-10T00:07:50.550Z,18.50
2018-01-10T00:08:50.077Z,18.20
2018-01-10T00:10:11.251Z,18.00
2018-01-10T00:11:33.159Z,18.60
2018-01-10T00:12:34.911Z,18.60
2018-01-10T00:13:33.820Z,17.40
2018-01-10T00:14:33.633Z,17.60
2018-01-10T00:15:33.693Z,17.10
2018-01-10T00:16:34.157Z,16.90
2018-01-10T00:17:33.603Z,16.80
2018-01-10T00:18:33.558Z,16.20
2018-01-10T00:19:33.158Z,16.00
2018-01-10T00:20:34.330Z,16.70
2018-01-10T00:21:33.976Z,15.30
2018-01-10T00:22:33.652Z,14.80
2018-01-10T00:23:33.772Z,15.50
2018-01-10T00:24:33.505Z,14.40
2018-01-10T00:25:33.306Z,14.90
2018-01-10T00:26:34.406Z,14.80
2018-01-10T00:27:34.163Z,14.00
2018-01-10T00:28:33.962Z,14.20
2018-01-10T00:29:33.376Z,13.80
2018-01-10T00:30:33.611Z,14.60
2018-01-10T00:31:32.908Z,14.60
2018-01-10T00:32:33.976Z,14.00
2018-01-10T00:33:33.802Z,13.30
2018-01-10T00:34:33.511Z,13.50
2018-01-10T00:35:32.876Z,13.60
2018-01-10T00:36:33.258Z,14.40
2018-01-10T00:37:33.921Z,13.10
2018-01-10T00:38:33.079Z,13.50
2018-01-10T00:39:33.836Z,13.70
2018-01-10T00:40:33.642Z,13.50
2018-01-10T00:41:33.216Z,13.10
2018-01-10T00:42:33.494Z,13.40
2018-01-10T00:43:33.272Z,13.50
2018-01-10T00:44:33.795Z,13.60
2018-01-10T00:45:33.682Z,13.50
2018-01-10T00:46:32.875Z,13.90
2018-01-10T00:47:33.351Z,14.40
2018-01-10T00:48:33.838Z,15.60
2018-01-10T00:49:33.110Z,15.30
2018-01-10T00:50:33.590Z,15.60
2018-01-10T00:51:33.339Z,15.90
2018-01-10T00:52:33.707Z,15.90
2018-01-10T00:53:33.257Z,14.70
2018-01-10T00:54:33.671Z,15.90
2018-01-10T00:55:32.888Z,15.40
2018-01-10T00:56:33.564Z,15.30
2018-01-10T00:57:33.200Z,16.00
2018-01-10T00:58:33.460Z,15.90
2018-01-10T00:59:33.799Z,15.30
2018-01-10T01:00:33.028Z,15.90
2018-01-10T01:01:34.230Z,16.30
2018-01-10T01:02:33.933Z,16.70
2018-01-10T01:03:34.388Z,17.20
2018-01-10T01:04:34.073Z,16.00
2018-01-10T01:05:33.376Z,15.70
2018-01-10T01:06:33.712Z,16.30
2018-01-10T01:07:33.309Z,15.10
2018-01-10T01:08:34.162Z,15.30
2018-01-10T01:09:34.110Z,15.00
2018-01-10T01:10:33.936Z,16.10
2018-01-10T01:11:33.430Z,15.20
2018-01-10T01:12:33.369Z,14.80
2018-01-10T01:13:34.773Z,14.30
2018-01-10T01:14:33.394Z,14.80
2018-01-10T01:15:34.180Z,14.60
2018-01-10T01:16:34.407Z,14.00
2018-01-10T01:17:34.265Z,13.90
2018-01-10T01:18:33.878Z,13.40
2018-01-10T01:19:34.295Z,13.30
2018-01-10T01:20:33.831Z,12.90
2018-01-10T01:21:33.417Z,14.30
2018-01-10T01:22:33.707Z,13.50
2018-01-10T01:23:33.634Z,13.60
2018-01-10T01:24:33.213Z,12.60
2018-01-10T01:25:33.573Z,13.80
2018-01-10T01:26:33.394Z,13.70
2018-01-10T01:27:33.773Z,13.90
2018-01-10T01:28:33.584Z,14.00
2018-01-10T01:29:33.353Z,13.60
2018-01-10T01:30:34.104Z,13.20
2018-01-10T01:31:33.871Z,12.90
2018-01-10T01:32:33.751Z,13.70
2018-01-10T01:33:33.392Z,13.40
2018-01-10T01:34:33.649Z,13.80
2018-01-10T01:35:32.964Z,13.30
2018-01-10T01:36:33.251Z,13.80
2018-01-10T01:37:33.793Z,13.80
2018-01-10T01:38:33.418Z,14.30
2018-01-10T01:39:32.899Z,13.70
2018-01-10T01:40:33.602Z,13.60
2018-01-10T01:41:33.309Z,12.80
2018-01-10T01:42:33.905Z,12.90
2018-01-10T01:43:33.345Z,14.00
2018-01-10T01:44:33.923Z,13.80
2018-01-10T01:45:33.147Z,14.10
2018-01-10T01:46:57.356Z,0.00
2018-01-10T01:47:57.915Z,13.40
2018-01-10T01:48:57.277Z,14.00
2018-01-10T01:49:57.443Z,14.60
2018-01-10T01:50:57.731Z,13.20
2018-01-10T01:51:58.169Z,13.50
2018-01-10T01:52:57.670Z,12.90
2018-01-10T01:53:57.445Z,13.60
2018-01-10T01:54:57.761Z,13.70
2018-01-10T01:55:57.547Z,13.40
2018-01-10T01:56:58.204Z,13.30
2018-01-10T01:57:58.185Z,13.50
2018-01-10T01:58:57.394Z,13.80
2018-01-10T01:59:57.909Z,13.60
2018-01-10T02:00:57.274Z,14.10
2018-01-10T02:01:57.860Z,13.50
2018-01-10T02:02:56.858Z,13.50
2018-01-10T02:03:57.235Z,13.30
2018-01-10T02:04:57.566Z,14.50
2018-01-10T02:05:57.292Z,12.80
2018-01-10T02:06:57.884Z,13.30
2018-01-10T02:07:57.176Z,13.50
2018-01-10T02:08:57.808Z,12.90
2018-01-10T02:09:57.525Z,14.30
2018-01-10T02:10:57.682Z,13.50
2018-01-10T02:11:57.634Z,14.40
2018-01-10T02:12:58.342Z,13.80
2018-01-10T02:13:57.832Z,13.80
2018-01-10T02:14:57.503Z,14.40
2018-01-10T02:15:57.782Z,15.20
2018-01-10T02:17:18.884Z,14.70
2018-01-10T02:18:19.199Z,14.90
2018-01-10T02:19:18.385Z,14.70
2018-01-10T02:20:19.571Z,14.60
2018-01-10T02:21:18.807Z,14.30
2018-01-10T02:22:18.885Z,14.70
2018-01-10T02:23:19.449Z,14.10
2018-01-10T02:24:18.549Z,13.70
2018-01-10T02:25:18.924Z,15.10
2018-01-10T02:26:19.374Z,14.00
2018-01-10T02:27:18.671Z,14.20
2018-01-10T02:28:40.510Z,15.10
2018-01-10T02:29:40.564Z,14.60
2018-01-10T02:30:40.734Z,14.10
2018-01-10T02:32:02.149Z,14.80
2018-01-10T02:33:02.934Z,14.00
2018-01-10T02:34:02.302Z,14.30
2018-01-10T02:35:02.872Z,14.30
2018-01-10T02:36:04.632Z,14.30
2018-01-10T02:37:02.867Z,14.30
2018-01-10T02:38:02.144Z,14.80
2018-01-10T02:39:02.390Z,14.30
2018-01-10T02:40:03.078Z,14.10
2018-01-10T02:41:02.857Z,14.40
2018-01-10T02:42:02.207Z,14.30
2018-01-10T02:43:02.553Z,13.90
2018-01-10T02:44:02.809Z,13.70
2018-01-10T02:45:03.035Z,15.00
2018-01-10T02:46:02.486Z,13.60
2018-01-10T02:47:03.165Z,14.10
2018-01-10T02:48:02.669Z,14.70
2018-01-10T02:49:02.916Z,13.60
2018-01-10T02:50:02.156Z,14.40
2018-01-10T02:51:02.532Z,14.40
2018-01-10T02:52:02.964Z,14.00
2018-01-10T02:53:02.282Z,14.30
2018-01-10T02:54:02.860Z,14.40
2018-01-10T02:55:02.471Z,14.40
2018-01-10T02:56:02.824Z,14.10
2018-01-10T02:57:01.991Z,14.70
2018-01-10T02:58:02.588Z,14.40
2018-01-10T02:59:02.844Z,14.50
2018-01-10T03:00:02.564Z,13.50
2018-01-10T03:01:03.277Z,14.00
2018-01-10T03:02:02.452Z,13.90
2018-01-10T03:03:02.479Z,13.10
2018-01-10T03:04:02.830Z,14.20
2018-01-10T03:05:02.257Z,14.20
2018-01-10T03:06:02.661Z,13.80
2018-01-10T03:07:02.840Z,13.50
2018-01-10T03:08:02.252Z,14.10
2018-01-10T03:09:02.530Z,13.80
2018-01-10T03:10:02.997Z,14.00
2018-01-10T03:11:03.108Z,14.00
2018-01-10T03:12:02.640Z,13.90
2018-01-10T03:13:03.199Z,13.50
2018-01-10T03:14:02.741Z,13.60
2018-01-10T03:15:02.463Z,13.80
2018-01-10T03:16:25.509Z,0.00
2018-01-10T03:17:25.604Z,13.70
2018-01-10T03:18:25.793Z,13.60
2018-01-10T03:19:26.201Z,13.90
2018-01-10T03:20:28.647Z,14.10
2018-01-10T03:21:25.776Z,13.80
2018-01-10T03:22:26.149Z,14.80
2018-01-10T03:23:26.837Z,14.50
2018-01-10T03:24:26.173Z,13.20
2018-01-10T03:25:26.435Z,14.00
2018-01-10T03:26:26.036Z,13.60
2018-01-10T03:27:26.667Z,14.30
2018-01-10T03:28:26.423Z,13.80
2018-01-10T03:29:26.867Z,13.30
2018-01-10T03:30:26.469Z,13.60
2018-01-10T03:31:25.725Z,13.60
2018-01-10T03:32:26.235Z,14.30
2018-01-10T03:33:26.510Z,13.10
2018-01-10T03:34:26.275Z,14.20
2018-01-10T03:35:26.835Z,13.50
2018-01-10T03:36:25.864Z,13.70
2018-01-10T03:37:26.496Z,12.90
2018-01-10T03:38:25.631Z,12.90
2018-01-10T03:39:25.942Z,13.40
2018-01-10T03:40:26.352Z,13.60
2018-01-10T03:41:26.127Z,13.60
2018-01-10T03:42:26.788Z,14.40
2018-01-10T03:43:26.460Z,13.10
2018-01-10T03:44:26.019Z,14.10
2018-01-10T03:45:26.605Z,13.00
2018-01-10T03:46:26.399Z,13.10
2018-01-10T03:47:26.128Z,13.90
2018-01-10T03:48:26.899Z,13.70
2018-01-10T03:49:26.477Z,13.50
2018-01-10T03:50:25.739Z,13.30
2018-01-10T03:51:26.058Z,13.40
2018-01-10T03:52:26.297Z,13.70
2018-01-10T03:53:26.814Z,13.60
2018-01-10T03:54:26.489Z,13.00
2018-01-10T03:55:26.066Z,12.80
2018-01-10T03:56:26.891Z,13.60
2018-01-10T03:57:26.459Z,13.90
2018-01-10T03:58:26.939Z,14.00
2018-01-10T03:59:26.067Z,12.90
2018-01-10T04:00:26.825Z,14.00
2018-01-10T04:01:26.164Z,13.90
2018-01-10T04:02:26.433Z,13.60
2018-01-10T04:03:25.790Z,13.40
2018-01-10T04:04:26.415Z,13.40
2018-01-10T04:05:26.690Z,14.00
2018-01-10T04:06:25.981Z,13.00
2018-01-10T04:07:26.438Z,13.70
2018-01-10T04:08:47.177Z,14.20
2018-01-10T04:09:47.472Z,13.40
2018-01-10T04:10:46.771Z,15.30
2018-01-10T04:11:47.521Z,13.10
2018-01-10T04:12:48.138Z,13.20
2018-01-10T04:13:47.602Z,13.00
2018-01-10T04:14:47.233Z,13.90
2018-01-10T04:15:47.502Z,13.20
2018-01-10T04:16:46.714Z,13.60
2018-01-10T04:17:47.307Z,13.00
2018-01-10T04:18:47.617Z,13.20
2018-01-10T04:19:47.216Z,13.20
2018-01-10T04:20:48.391Z,12.80
2018-01-10T04:21:47.617Z,13.00
2018-01-10T04:22:46.691Z,12.50
2018-01-10T04:23:47.345Z,12.40
2018-01-10T04:24:47.745Z,13.30
2018-01-10T04:25:46.911Z,12.40
2018-01-10T04:26:47.545Z,12.20
2018-01-10T04:28:08.820Z,11.90
2018-01-10T04:29:09.184Z,12.90
2018-01-10T04:30:09.414Z,12.90
2018-01-10T04:31:09.061Z,12.50
2018-01-10T04:32:09.872Z,12.30
2018-01-10T04:33:09.328Z,13.00
2018-01-10T04:34:09.390Z,12.80
2018-01-10T04:35:10.022Z,12.70
2018-01-10T04:36:09.293Z,12.90
2018-01-10T04:37:09.414Z,12.70
2018-01-10T04:38:09.159Z,12.80
2018-01-10T04:39:09.426Z,12.40
2018-01-10T04:40:09.081Z,14.00
2018-01-10T04:41:09.685Z,13.30
2018-01-10T04:42:09.134Z,14.30
2018-01-10T04:43:09.762Z,12.60
2018-01-10T04:44:09.136Z,13.90
2018-01-10T04:45:09.593Z,13.30
2018-01-10T04:46:08.738Z,13.10
2018-01-10T04:47:09.449Z,13.30
2018-01-10T04:48:09.122Z,13.80
2018-01-10T04:49:09.876Z,13.40
2018-01-10T04:50:09.339Z,12.70
2018-01-10T04:51:09.092Z,13.70
2018-01-10T04:52:09.249Z,13.00
2018-01-10T04:53:09.820Z,13.00
2018-01-10T04:54:09.329Z,13.20
2018-01-10T04:55:10.249Z,12.50
2018-01-10T04:56:09.849Z,13.60
2018-01-10T04:57:09.454Z,12.50
2018-01-10T04:58:08.712Z,13.10
2018-01-10T04:59:09.756Z,13.10
2018-01-10T05:00:09.200Z,13.80
2018-01-10T05:01:09.570Z,13.40
2018-01-10T05:02:09.139Z,12.80
2018-01-10T05:03:09.349Z,13.30
2018-01-10T05:04:09.614Z,12.70
2018-01-10T05:05:09.643Z,13.30
2018-01-10T05:06:08.781Z,13.30
2018-01-10T05:07:09.249Z,13.00
2018-01-10T05:08:09.405Z,13.40
2018-01-10T05:09:09.639Z,12.60
2018-01-10T05:10:10.287Z,12.20
2018-01-10T05:11:09.476Z,12.50
2018-01-10T05:12:09.035Z,13.10
2018-01-10T05:13:09.222Z,12.70
2018-01-10T05:14:10.944Z,12.60
2018-01-10T05:15:10.864Z,13.20
2018-01-10T05:16:13.038Z,13.80
2018-01-10T05:17:09.981Z,12.50
2018-01-10T05:18:09.781Z,13.70
2018-01-10T05:19:11.016Z,12.70
2018-01-10T05:20:09.360Z,13.40
2018-01-10T05:21:09.741Z,13.50
2018-01-10T05:22:09.412Z,12.70
2018-01-10T05:23:08.782Z,13.40
2018-01-10T05:24:09.840Z,12.90
2018-01-10T05:25:09.178Z,13.70
2018-01-10T05:26:09.819Z,13.90
2018-01-10T05:27:09.514Z,12.90
2018-01-10T05:28:09.332Z,12.70
2018-01-10T05:29:10.000Z,13.70
2018-01-10T05:30:09.474Z,12.70
2018-01-10T05:31:08.815Z,13.00
2018-01-10T05:32:09.103Z,13.60
2018-01-10T05:33:09.725Z,13.80
2018-01-10T05:34:10.269Z,13.00
2018-01-10T05:35:32.798Z,13.60
2018-01-10T05:36:33.218Z,13.40
2018-01-10T05:37:33.903Z,13.70
2018-01-10T05:38:54.774Z,13.20
2018-01-10T05:39:55.426Z,12.90
2018-01-10T05:40:54.857Z,12.50
2018-01-10T05:41:55.098Z,12.70
2018-01-10T05:42:54.524Z,12.80
2018-01-10T05:43:54.850Z,12.70
2018-01-10T05:44:55.286Z,13.20
2018-01-10T05:45:54.621Z,14.00
2018-01-10T05:46:55.087Z,13.40
2018-01-10T05:47:54.388Z,12.70
2018-01-10T05:48:54.632Z,13.60
2018-01-10T05:49:55.231Z,12.80
2018-01-10T05:50:54.547Z,12.90
2018-01-10T05:51:55.345Z,12.60
2018-01-10T05:52:56.113Z,12.30
2018-01-10T05:53:55.304Z,13.30
2018-01-10T05:54:54.412Z,13.50
2018-01-10T05:55:54.957Z,13.60
2018-01-10T05:56:55.301Z,13.70
2018-01-10T05:57:54.505Z,13.30
2018-01-10T05:58:55.086Z,13.50
2018-01-10T05:59:54.628Z,14.40
2018-01-10T06:01:15.645Z,13.60
2018-01-10T06:02:15.804Z,14.20
2018-01-10T06:03:16.217Z,13.80
2018-01-10T06:04:17.318Z,14.10
2018-01-10T06:05:16.166Z,13.70
2018-01-10T06:06:16.706Z,14.10
2018-01-10T06:07:16.320Z,14.50
2018-01-10T06:08:17.050Z,13.60
2018-01-10T06:09:16.465Z,15.40
2018-01-10T06:10:15.783Z,14.00
2018-01-10T06:11:38.003Z,14.50
2018-01-10T06:12:37.743Z,14.20
2018-01-10T06:13:38.215Z,14.90
2018-01-10T06:14:37.647Z,14.70
2018-01-10T06:15:38.525Z,15.10
2018-01-10T06:16:38.384Z,14.10
2018-01-10T06:17:37.663Z,13.90
2018-01-10T06:18:59.301Z,13.90
2018-01-10T06:19:59.805Z,14.70
2018-01-10T06:21:00.336Z,14.20
2018-01-10T06:22:21.172Z,14.30
2018-01-10T06:23:21.944Z,15.10
2018-01-10T06:24:22.460Z,14.80
2018-01-10T06:25:22.169Z,15.20
2018-01-10T06:26:33.972Z,15.50
2018-01-10T06:27:22.054Z,14.90
2018-01-10T06:28:21.301Z,16.00
2018-01-10T06:29:21.662Z,16.00
2018-01-10T06:30:22.596Z,16.70
2018-01-10T06:31:22.856Z,15.10
2018-01-10T06:32:22.151Z,16.20
2018-01-10T06:33:21.664Z,16.30
2018-01-10T06:34:21.875Z,16.90
2018-01-10T06:35:22.214Z,17.10
2018-01-10T06:36:21.794Z,17.60
2018-01-10T06:37:21.989Z,17.10
2018-01-10T06:38:21.585Z,17.50
2018-01-10T06:39:22.200Z,17.20
2018-01-10T06:40:21.751Z,16.20
2018-01-10T06:41:22.090Z,16.80
2018-01-10T06:43:05.641Z,17.60
2018-01-10T06:44:05.995Z,17.20
2018-01-10T06:45:05.877Z,16.20
2018-01-10T06:46:06.179Z,16.40
2018-01-10T06:47:05.503Z,16.70
2018-01-10T06:48:05.973Z,16.00
2018-01-10T06:49:06.537Z,16.30
2018-01-10T06:50:06.696Z,15.00
2018-01-10T06:51:06.905Z,14.80
2018-01-10T06:52:05.795Z,14.60
2018-01-10T06:53:06.693Z,15.10
2018-01-10T06:54:06.502Z,14.70
2018-01-10T06:55:05.849Z,15.00
2018-01-10T06:56:06.574Z,14.20
2018-01-10T06:57:06.152Z,14.40
2018-01-10T06:58:05.895Z,15.40
2018-01-10T06:59:06.885Z,14.40
2018-01-10T07:00:05.676Z,13.70
2018-01-10T07:01:28.135Z,13.50
2018-01-10T07:02:28.385Z,14.30
2018-01-10T07:03:27.830Z,12.30
2018-01-10T07:04:28.334Z,13.50
2018-01-10T07:05:28.037Z,13.70
2018-01-10T07:06:28.917Z,13.80
2018-01-10T07:07:28.171Z,11.90
2018-01-10T07:08:28.262Z,12.70
2018-01-10T07:09:28.475Z,13.50
2018-01-10T07:10:27.595Z,13.00
2018-01-10T07:11:27.936Z,13.80
2018-01-10T07:12:28.094Z,13.40
2018-01-10T07:13:28.839Z,13.20
2018-01-10T07:14:28.652Z,12.90
2018-01-10T07:15:27.944Z,13.80
2018-01-10T07:16:28.233Z,12.70
2018-01-10T07:17:28.677Z,13.50
2018-01-10T07:18:28.095Z,12.90
2018-01-10T07:19:28.747Z,13.50
2018-01-10T07:20:49.080Z,13.00
2018-01-10T07:21:49.392Z,13.10
2018-01-10T07:22:50.254Z,13.30
2018-01-10T07:23:50.094Z,12.60
2018-01-10T07:24:50.346Z,13.60
2018-01-10T07:25:50.089Z,13.20
2018-01-10T07:26:49.949Z,13.70
2018-01-10T07:27:49.237Z,12.50
2018-01-10T07:28:49.458Z,13.70
2018-01-10T07:29:50.172Z,13.80
2018-01-10T07:30:49.325Z,13.40
2018-01-10T07:31:50.169Z,13.00
2018-01-10T07:32:50.090Z,12.90
2018-01-10T07:33:50.100Z,12.80
2018-01-10T07:34:49.564Z,13.30
2018-01-10T07:35:50.241Z,13.40
2018-01-10T07:36:49.979Z,13.30
2018-01-10T07:37:49.217Z,12.50
2018-01-10T07:38:50.032Z,12.70
2018-01-10T07:39:49.869Z,13.30
2018-01-10T07:41:11.063Z,12.70
2018-01-10T07:42:11.621Z,12.60
2018-01-10T07:43:10.904Z,12.60
2018-01-10T07:44:11.677Z,12.80
2018-01-10T07:45:10.919Z,13.20
2018-01-10T07:46:11.611Z,13.40
2018-01-10T07:47:10.826Z,13.00
2018-01-10T07:48:11.748Z,12.50
2018-01-10T07:49:11.743Z,12.80
2018-01-10T07:50:36.945Z,0.00
2018-01-10T07:51:37.515Z,13.30
2018-01-10T07:52:37.717Z,13.70
2018-01-10T07:53:58.455Z,12.70
2018-01-10T07:55:00.180Z,12.80
2018-01-10T07:55:58.507Z,13.30
2018-01-10T07:56:58.741Z,12.80
2018-01-10T07:57:59.126Z,13.30
2018-01-10T07:58:59.492Z,13.30
2018-01-10T07:59:58.968Z,13.00
2018-01-10T08:00:59.229Z,13.40
2018-01-10T08:01:58.737Z,13.20
2018-01-10T08:02:59.489Z,13.20
2018-01-10T08:03:59.281Z,13.80
2018-01-10T08:04:59.372Z,13.00
2018-01-10T08:05:58.563Z,13.40
2018-01-10T08:06:59.263Z,13.80
2018-01-10T08:07:58.568Z,13.40
2018-01-10T08:08:59.436Z,13.70
2018-01-10T08:09:59.292Z,14.20
2018-01-10T08:10:59.615Z,13.80
2018-01-10T08:12:00.107Z,13.60
2018-01-10T08:12:59.681Z,13.80
2018-01-10T08:13:59.566Z,14.90
2018-01-10T08:14:59.667Z,14.80
2018-01-10T08:15:59.302Z,14.40
2018-01-10T08:16:59.253Z,13.60
2018-01-10T08:17:59.458Z,14.60
2018-01-10T08:18:59.421Z,14.60
2018-01-10T08:19:59.162Z,14.90
2018-01-10T08:20:58.626Z,15.30
2018-01-10T08:21:58.838Z,15.20
2018-01-10T08:22:59.266Z,14.60
2018-01-10T08:23:58.662Z,14.20
2018-01-10T08:24:59.409Z,14.80
2018-01-10T08:25:58.711Z,14.50
2018-01-10T08:26:59.822Z,14.30
2018-01-10T08:27:59.017Z,14.90
2018-01-10T08:28:59.725Z,14.00
2018-01-10T08:29:59.730Z,14.30
2018-01-10T08:30:59.087Z,14.40
2018-01-10T08:31:59.652Z,15.50
2018-01-10T08:32:59.003Z,13.90
2018-01-10T08:33:59.615Z,15.00
2018-01-10T08:34:59.173Z,15.20
2018-01-10T08:35:58.673Z,13.00
2018-01-10T08:36:59.589Z,14.00
2018-01-10T08:37:59.281Z,15.10
2018-01-10T08:39:20.723Z,14.10
2018-01-10T08:40:21.271Z,14.30
2018-01-10T08:41:20.477Z,14.50
2018-01-10T08:42:21.036Z,13.40
2018-01-10T08:43:20.753Z,14.70
2018-01-10T08:44:20.953Z,14.10
2018-01-10T08:45:20.649Z,15.20
2018-01-10T08:46:21.321Z,14.60
2018-01-10T08:47:20.827Z,13.60
2018-01-10T08:48:20.691Z,13.80
2018-01-10T08:49:21.318Z,14.60
2018-01-10T08:50:21.434Z,15.00
2018-01-10T08:51:21.205Z,14.40
2018-01-10T08:52:20.477Z,14.30
2018-01-10T08:53:21.399Z,12.90
2018-01-10T08:54:21.088Z,14.20
2018-01-10T08:55:20.446Z,13.40
2018-01-10T08:56:21.135Z,13.50
2018-01-10T08:57:21.171Z,15.00
2018-01-10T08:58:21.028Z,14.20
2018-01-10T08:59:20.425Z,14.40
2018-01-10T09:00:20.667Z,14.40
2018-01-10T09:01:21.074Z,14.10
2018-01-10T09:02:20.924Z,14.40
2018-01-10T09:03:21.362Z,14.60
2018-01-10T09:04:21.122Z,14.30
2018-01-10T09:05:20.715Z,14.70
2018-01-10T09:06:43.676Z,15.00
2018-01-10T09:07:44.864Z,14.90
2018-01-10T09:08:43.502Z,14.60
2018-01-10T09:09:43.256Z,15.30
2018-01-10T09:10:42.991Z,15.60
2018-01-10T09:11:42.290Z,15.50
2018-01-10T09:12:44.420Z,14.00
2018-01-10T09:13:44.030Z,14.80
2018-01-10T09:14:42.769Z,15.30
2018-01-10T09:15:43.793Z,15.20
2018-01-10T09:16:46.126Z,15.00
2018-01-10T09:17:43.964Z,14.40
2018-01-10T09:18:42.572Z,14.70
2018-01-10T09:19:43.421Z,15.10
2018-01-10T09:20:43.154Z,14.30
2018-01-10T09:22:03.648Z,14.10
2018-01-10T09:23:03.914Z,14.90
2018-01-10T09:24:04.612Z,15.00
2018-01-10T09:25:04.120Z,14.60
2018-01-10T09:26:25.996Z,15.00
2018-01-10T09:27:26.501Z,14.30
2018-01-10T09:28:27.792Z,14.40
2018-01-10T09:29:26.889Z,13.90
2018-01-10T09:30:26.343Z,14.90
2018-01-10T09:31:26.902Z,15.20
2018-01-10T09:32:27.412Z,14.50
2018-01-10T09:33:26.037Z,14.30
2018-01-10T09:34:26.676Z,14.40
2018-01-10T09:35:26.796Z,14.70
2018-01-10T09:36:26.631Z,14.30
2018-01-10T09:37:26.982Z,14.80
2018-01-10T09:38:26.776Z,14.60
2018-01-10T09:39:26.860Z,14.30
2018-01-10T09:40:26.422Z,13.20
2018-01-10T09:41:26.617Z,13.60
2018-01-10T09:42:26.185Z,14.10
2018-01-10T09:43:26.642Z,13.70
2018-01-10T09:44:25.913Z,14.10
2018-01-10T09:45:47.802Z,14.10
2018-01-10T09:46:48.588Z,13.20
2018-01-10T09:47:48.386Z,13.90
2018-01-10T09:48:48.230Z,12.80
2018-01-10T09:49:47.802Z,13.10
2018-01-10T09:51:09.966Z,14.00
2018-01-10T09:52:32.244Z,13.50
2018-01-10T09:53:32.712Z,12.40
2018-01-10T09:55:16.142Z,13.80
2018-01-10T09:56:17.343Z,12.50
2018-01-10T09:57:16.103Z,12.20
2018-01-10T09:58:17.048Z,13.00
2018-01-10T09:59:16.883Z,12.70
2018-01-10T10:00:37.388Z,13.60
2018-01-10T10:01:39.153Z,12.60
2018-01-10T10:02:38.940Z,12.10
2018-01-10T10:03:37.948Z,12.70
2018-01-10T10:04:38.504Z,12.90
2018-01-10T10:05:38.772Z,12.50
2018-01-10T10:06:39.759Z,12.70
2018-01-10T10:07:38.046Z,12.00
2018-01-10T10:08:37.978Z,12.60
2018-01-10T10:09:37.774Z,12.40
2018-01-10T10:11:01.935Z,0.00
2018-01-10T10:12:02.970Z,12.80
2018-01-10T10:13:02.432Z,12.40
2018-01-10T10:14:02.208Z,12.10
2018-01-10T10:15:02.923Z,11.90
2018-01-10T10:16:02.455Z,11.70
2018-01-10T10:17:02.079Z,11.70
2018-01-10T10:18:02.791Z,13.00
2018-01-10T10:19:02.347Z,11.80
2018-01-10T10:20:02.061Z,12.60
2018-01-10T10:21:02.879Z,12.70
2018-01-10T10:22:02.722Z,12.10
2018-01-10T10:23:02.638Z,11.60
2018-01-10T10:24:01.987Z,12.90
2018-01-10T10:25:02.642Z,12.10
2018-01-10T10:26:02.312Z,12.50
2018-01-10T10:27:01.722Z,11.80
2018-01-10T10:28:02.748Z,12.30
2018-01-10T10:29:02.873Z,12.00
2018-01-10T10:30:02.681Z,11.80
2018-01-10T10:31:02.539Z,11.70
2018-01-10T10:32:02.017Z,12.40
2018-01-10T10:33:03.605Z,12.80
2018-01-10T10:34:02.367Z,11.50
2018-01-10T10:35:01.806Z,12.50
2018-01-10T10:36:02.796Z,12.80
2018-01-10T10:37:02.410Z,11.90
2018-01-10T10:38:02.760Z,11.60
2018-01-10T10:39:02.488Z,12.10
2018-01-10T10:40:03.813Z,12.70
2018-01-10T10:41:02.621Z,13.00
2018-01-10T10:42:02.636Z,12.10
2018-01-10T10:43:02.689Z,12.40
2018-01-10T10:44:02.165Z,11.50
2018-01-10T10:45:01.948Z,12.00
2018-01-10T10:46:02.540Z,11.90
2018-01-10T10:47:02.409Z,11.50
2018-01-10T10:48:02.431Z,11.70
2018-01-10T10:49:02.307Z,10.70
2018-01-10T10:50:01.517Z,10.20
2018-01-10T10:51:02.054Z,10.50
2018-01-10T10:52:02.894Z,9.10
2018-01-10T10:53:02.512Z,9.10
2018-01-10T10:54:02.363Z,9.10
2018-01-10T10:55:23.477Z,9.50
2018-01-10T10:56:25.412Z,9.80
2018-01-10T10:57:24.061Z,9.60
2018-01-10T10:58:24.246Z,8.20
2018-01-10T10:59:24.135Z,8.10
2018-01-10T11:00:23.457Z,7.50
2018-01-10T11:01:24.018Z,8.30
2018-01-10T11:02:24.343Z,8.70
2018-01-10T11:03:23.571Z,8.80
2018-01-10T11:04:24.401Z,8.30
2018-01-10T11:05:24.054Z,8.60
2018-01-10T11:06:24.152Z,7.60
2018-01-10T11:07:23.982Z,7.80
2018-01-10T11:08:44.963Z,8.10
2018-01-10T11:09:45.777Z,8.20
2018-01-10T11:10:45.560Z,7.40
2018-01-10T11:11:45.176Z,7.60
2018-01-10T11:12:45.532Z,7.70
2018-01-10T11:13:45.957Z,7.90
2018-01-10T11:14:45.474Z,8.40
2018-01-10T11:16:29.950Z,8.20
2018-01-10T11:17:29.796Z,7.30
2018-01-10T11:18:29.358Z,7.60
2018-01-10T11:19:30.053Z,7.20
2018-01-10T11:20:29.569Z,7.40
2018-01-10T11:21:50.245Z,6.60
2018-01-10T11:22:50.848Z,7.00
2018-01-10T11:23:50.002Z,7.60
2018-01-10T11:24:51.100Z,7.10
2018-01-10T11:25:51.062Z,6.70
2018-01-10T11:26:50.835Z,6.70
2018-01-10T11:27:51.394Z,6.60
2018-01-10T11:28:51.832Z,7.00
2018-01-10T11:29:50.510Z,7.00
2018-01-10T11:30:51.357Z,7.50
2018-01-10T11:31:51.206Z,7.40
2018-01-10T11:32:50.946Z,6.70
2018-01-10T11:33:50.350Z,6.80
2018-01-10T11:34:50.672Z,6.60
2018-01-10T11:35:51.880Z,6.80
2018-01-10T11:36:50.472Z,6.80
2018-01-10T11:37:50.834Z,6.40
2018-01-10T11:39:34.271Z,6.80
2018-01-10T11:40:35.094Z,6.90
2018-01-10T11:41:34.919Z,6.70
2018-01-10T11:42:34.126Z,6.70
2018-01-10T11:43:35.088Z,6.10
2018-01-10T11:44:34.288Z,6.30
2018-01-10T11:45:35.258Z,6.90
2018-01-10T11:46:34.582Z,6.20
2018-01-10T11:47:35.246Z,7.10
2018-01-10T11:48:34.805Z,6.80
2018-01-10T11:49:34.588Z,6.90
2018-01-10T11:50:34.408Z,6.80
2018-01-10T11:51:35.146Z,6.20
2018-01-10T11:52:34.548Z,6.20
2018-01-10T11:53:56.671Z,6.90
2018-01-10T11:55:19.028Z,6.70
2018-01-10T11:56:19.427Z,5.80
2018-01-10T11:57:19.162Z,6.30
2018-01-10T11:58:19.191Z,6.50
2018-01-10T11:59:19.153Z,6.60
2018-01-10T12:00:20.540Z,6.40
2018-01-10T12:01:19.654Z,7.10
2018-01-10T12:02:19.591Z,6.40
2018-01-10T12:03:20.014Z,5.90
2018-01-10T12:04:41.702Z,5.40
2018-01-10T12:05:42.620Z,6.10
2018-01-10T12:06:41.934Z,6.10
2018-01-10T12:07:42.333Z,6.00
2018-01-10T12:09:02.747Z,5.70
2018-01-10T12:10:03.065Z,5.90
2018-01-10T12:11:03.789Z,6.10
2018-01-10T12:12:04.485Z,5.70
2018-01-10T12:13:24.297Z,6.20
2018-01-10T12:14:24.988Z,6.60
2018-01-10T12:15:24.882Z,5.40
2018-01-10T12:16:24.424Z,5.40
2018-01-10T12:17:25.051Z,6.10
2018-01-10T12:18:24.472Z,6.30
2018-01-10T12:19:24.652Z,5.80
2018-01-10T12:20:25.478Z,5.30
2018-01-10T12:21:24.928Z,6.20
2018-01-10T12:22:24.584Z,6.40
2018-01-10T12:23:25.533Z,6.10
2018-01-10T12:24:24.998Z,6.20
2018-01-10T12:25:24.713Z,6.50
2018-01-10T12:27:08.076Z,6.10
2018-01-10T12:28:51.002Z,5.30
2018-01-10T12:29:51.534Z,5.90
2018-01-10T12:31:35.068Z,5.80
2018-01-10T12:32:56.068Z,4.90
2018-01-10T12:33:56.488Z,5.60
2018-01-10T12:35:17.486Z,5.40
2018-01-10T12:36:40.063Z,5.30
2018-01-10T12:37:40.718Z,6.00
2018-01-10T12:39:02.578Z,5.10
2018-01-10T12:40:24.460Z,5.50
2018-01-10T12:41:47.267Z,5.90
2018-01-10T12:42:45.707Z,5.90
2018-01-10T12:44:29.731Z,5.70
2018-01-10T12:45:30.412Z,5.60
2018-01-10T12:47:34.201Z,5.40
2018-01-10T12:48:34.585Z,5.90
2018-01-10T12:49:34.062Z,5.90
2018-01-10T12:50:56.362Z,5.60
2018-01-10T12:52:19.038Z,5.40
2018-01-10T12:53:19.206Z,6.00
2018-01-10T12:54:18.889Z,5.50
2018-01-10T12:55:19.492Z,5.40
2018-01-10T12:56:18.856Z,5.80
2018-01-10T12:57:18.522Z,5.80
2018-01-10T12:58:18.947Z,6.10
2018-01-10T12:59:19.834Z,6.00
2018-01-10T13:00:18.616Z,6.00
2018-01-10T13:01:39.081Z,5.00
2018-01-10T13:02:39.353Z,5.30
2018-01-10T13:03:40.184Z,5.80
2018-01-10T13:05:00.976Z,5.30
2018-01-10T13:06:01.662Z,6.00
2018-01-10T13:07:02.417Z,6.10
2018-01-10T13:08:23.622Z,5.90
2018-01-10T13:09:45.468Z,5.90
2018-01-10T13:10:46.652Z,5.90
2018-01-10T13:12:08.473Z,5.80
2018-01-10T13:13:31.075Z,5.80
2018-01-10T13:14:30.784Z,6.60
2018-01-10T13:15:31.148Z,5.80
2018-01-10T13:16:53.142Z,6.50
2018-01-10T13:18:15.498Z,6.40
2018-01-10T13:19:16.123Z,5.90
2018-01-10T13:20:37.023Z,6.10
2018-01-10T13:21:37.126Z,5.90
2018-01-10T13:22:37.501Z,5.80
2018-01-10T13:23:59.129Z,5.80
2018-01-10T13:24:59.732Z,6.00